Ledoux, New Mexico
Current Conditions -  °F | °C
As of 7:15 AM on Monday 26 Jan 2015 (Local Time) from KAXX Reporting Station
Clear Clear  
Wind Chill:   Ceiling: Unl
Heat Index:   Visibility: 10mi
Dew Point:   Wind: 0mph
Humidity: 91%   Direction: NA
Pressure: 30.47"   Gusts: NA
Location:  36.0379°N, 105.295°W
Report Text: KAXX 261415Z AUTO 00000KT 10SM CLR M13/M14 A3047 RMK AO2 T11291141
Loading
Personal Weather Stations






























Interactive Weather Map New forecast layout! Learn more

10-Day Weather Forecast

Advertisements
Track Severe Weather on mobile